createdAt,value
2018-10-19T00:01:03.975Z,9.04
2018-10-19T00:02:14.095Z,9.04
2018-10-19T00:03:24.231Z,9
2018-10-19T00:04:34.477Z,9.01
2018-10-19T00:05:44.599Z,9.02
2018-10-19T00:06:54.714Z,8.98
2018-10-19T00:08:04.837Z,9
2018-10-19T00:09:14.950Z,8.95
2018-10-19T00:10:25.183Z,8.97
2018-10-19T00:11:35.041Z,8.9
2018-10-19T00:12:45.263Z,8.95
2018-10-19T00:13:55.599Z,8.93
2018-10-19T00:15:05.851Z,8.77
2018-10-19T00:16:16.299Z,8.82
2018-10-19T00:17:26.434Z,8.8
2018-10-19T00:18:36.556Z,8.7
2018-10-19T00:19:46.658Z,8.74
2018-10-19T00:20:56.877Z,8.71
2018-10-19T00:22:07.188Z,8.67
2018-10-19T00:23:17.589Z,8.7
2018-10-19T00:24:27.700Z,8.71
2018-10-19T00:25:37.825Z,8.68
2018-10-19T00:26:47.943Z,8.68
2018-10-19T00:27:58.060Z,8.7
2018-10-19T00:29:08.424Z,8.64
2018-10-19T00:30:18.851Z,8.6
2018-10-19T00:31:28.967Z,8.55
2018-10-19T00:32:39.079Z,8.67
2018-10-19T00:33:49.420Z,8.6
2018-10-19T00:34:59.406Z,8.61
2018-10-19T00:36:09.665Z,8.55
2018-10-19T00:37:19.788Z,8.57
2018-10-19T00:38:29.917Z,8.68
2018-10-19T00:39:40.037Z,8.57
2018-10-19T00:40:50.165Z,8.5
2018-10-19T00:42:00.398Z,8.48
2018-10-19T00:43:10.511Z,8.49
2018-10-19T00:44:20.628Z,8.55
2018-10-19T00:45:30.740Z,8.57
2018-10-19T00:46:40.871Z,8.57
2018-10-19T00:47:50.992Z,8.52
2018-10-19T00:49:01.128Z,8.58
2018-10-19T00:50:11.006Z,8.52
2018-10-19T00:51:21.257Z,8.49
2018-10-19T00:52:31.362Z,8.55
2018-10-19T00:53:41.469Z,8.46
2018-10-19T00:54:51.593Z,8.43
2018-10-19T00:56:01.705Z,8.4
2018-10-19T00:57:11.975Z,8.39
2018-10-19T00:58:22.527Z,8.35
2018-10-19T00:59:32.635Z,8.4
2018-10-19T01:00:43.019Z,8.45
2018-10-19T01:01:53.139Z,8.48
2018-10-19T01:03:03.397Z,8.42
2018-10-19T01:04:13.342Z,8.34
2018-10-19T01:05:23.461Z,8.39
2018-10-19T01:06:33.310Z,8.34
2018-10-19T01:07:43.437Z,8.31
2018-10-19T01:08:53.804Z,8.35
2018-10-19T01:10:04.036Z,8.3
2018-10-19T01:11:13.721Z,8.34
2018-10-19T01:12:24.146Z,8.31
2018-10-19T01:13:34.288Z,8.27
2018-10-19T01:14:44.427Z,8.15
2018-10-19T01:15:54.545Z,8.13
2018-10-19T01:17:04.729Z,8.21
2018-10-19T01:18:15.233Z,8.15
2018-10-19T01:19:25.351Z,8.13
2018-10-19T01:20:35.458Z,8.09
2018-10-19T01:21:45.781Z,7.99
2018-10-19T01:22:55.964Z,7.99
2018-10-19T01:24:06.170Z,7.92
2018-10-19T01:25:16.311Z,7.95
2018-10-19T01:26:26.433Z,7.91
2018-10-19T01:27:36.562Z,7.85
2018-10-19T01:28:46.681Z,7.8
2018-10-19T01:29:57.029Z,7.84
2018-10-19T01:31:07.145Z,7.79
2018-10-19T01:32:17.257Z,7.82
2018-10-19T01:33:27.098Z,7.85
2018-10-19T01:34:37.211Z,7.82
2018-10-19T01:35:47.445Z,7.77
2018-10-19T01:36:57.664Z,7.85
2018-10-19T01:38:07.846Z,7.82
2018-10-19T01:39:18.561Z,7.84
2018-10-19T01:40:28.847Z,7.73
2018-10-19T01:41:38.965Z,7.72
2018-10-19T01:42:49.084Z,7.8
2018-10-19T01:43:59.201Z,7.69
2018-10-19T01:45:09.489Z,7.79
2018-10-19T01:46:19.960Z,7.76
2018-10-19T01:47:30.073Z,7.76
2018-10-19T01:48:40.179Z,7.64
2018-10-19T01:49:50.288Z,7.67
2018-10-19T01:51:00.517Z,7.62
2018-10-19T01:52:10.794Z,7.66
2018-10-19T01:53:21.059Z,7.59
2018-10-19T01:54:31.214Z,7.55
2018-10-19T01:55:41.322Z,7.56
2018-10-19T01:56:51.433Z,7.51
2018-10-19T01:58:01.340Z,7.49
2018-10-19T01:59:11.469Z,7.56
2018-10-19T02:00:21.912Z,7.56
2018-10-19T02:01:32.016Z,7.48
2018-10-19T02:02:42.124Z,7.55
2018-10-19T02:03:52.242Z,7.56
2018-10-19T02:05:02.452Z,7.56
2018-10-19T02:06:12.741Z,7.56
2018-10-19T02:07:22.844Z,7.54
2018-10-19T02:08:33.003Z,7.58
2018-10-19T02:09:43.117Z,7.55
2018-10-19T02:10:53.263Z,7.54
2018-10-19T02:12:03.488Z,7.59
2018-10-19T02:13:13.606Z,7.49
2018-10-19T02:14:23.816Z,7.48
2018-10-19T02:15:34.003Z,7.48
2018-10-19T02:16:44.123Z,7.56
2018-10-19T02:17:54.239Z,7.49
2018-10-19T02:19:04.351Z,7.51
2018-10-19T02:20:14.455Z,7.4
2018-10-19T02:21:24.575Z,7.48
2018-10-19T02:22:34.903Z,7.54
2018-10-19T02:23:45.039Z,7.49
2018-10-19T02:24:55.148Z,7.43
2018-10-19T02:26:05.278Z,7.48
2018-10-19T02:27:15.682Z,7.48
2018-10-19T02:28:25.608Z,7.41
2018-10-19T02:29:35.367Z,7.47
2018-10-19T02:30:45.481Z,7.48
2018-10-19T02:31:55.603Z,7.43
2018-10-19T02:33:05.847Z,7.4
2018-10-19T02:34:16.300Z,7.43
2018-10-19T02:35:26.444Z,7.47
2018-10-19T02:36:36.560Z,7.37
2018-10-19T02:37:46.433Z,7.41
2018-10-19T02:38:56.590Z,7.34
2018-10-19T02:40:06.818Z,7.33
2018-10-19T02:41:17.372Z,7.33
2018-10-19T02:42:27.509Z,7.31
2018-10-19T02:43:37.632Z,7.33
2018-10-19T02:44:47.751Z,7.33
2018-10-19T02:45:57.900Z,7.26
2018-10-19T02:47:08.211Z,7.21
2018-10-19T02:48:18.589Z,7.29
2018-10-19T02:49:28.690Z,7.26
2018-10-19T02:50:38.802Z,7.24
2018-10-19T02:51:48.959Z,7.26
2018-10-19T02:52:59.253Z,7.24
2018-10-19T02:54:09.537Z,7.2
2018-10-19T02:55:19.412Z,7.24
2018-10-19T02:56:29.527Z,7.24
2018-10-19T02:57:39.653Z,7.22
2018-10-19T02:58:49.510Z,7.24
2018-10-19T02:59:59.667Z,7.1
2018-10-19T03:01:09.781Z,7.17
2018-10-19T03:02:19.634Z,7.15
2018-10-19T03:03:29.494Z,7.13
2018-10-19T03:04:39.614Z,7.18
2018-10-19T03:05:49.719Z,7.11
2018-10-19T03:06:59.858Z,7.13
2018-10-19T03:08:09.967Z,7.17
2018-10-19T03:09:20.387Z,7.2
2018-10-19T03:10:30.564Z,7.15
2018-10-19T03:11:41.120Z,7.1
2018-10-19T03:12:51.239Z,7.1
2018-10-19T03:14:01.372Z,7.11
2018-10-19T03:15:11.818Z,7.03
2018-10-19T03:16:22.294Z,7
2018-10-19T03:17:32.157Z,7
2018-10-19T03:18:42.271Z,6.96
2018-10-19T03:19:52.397Z,7
2018-10-19T03:21:02.367Z,7.05
2018-10-19T03:22:12.717Z,7
2018-10-19T03:23:22.648Z,7.02
2018-10-19T03:24:32.773Z,7.03
2018-10-19T03:25:43.128Z,7.08
2018-10-19T03:26:53.260Z,7.06
2018-10-19T03:28:03.541Z,6.97
2018-10-19T03:29:13.894Z,7
2018-10-19T03:30:24.417Z,6.93
2018-10-19T03:31:34.542Z,6.9
2018-10-19T03:32:44.672Z,6.93
2018-10-19T03:33:54.430Z,6.93
2018-10-19T03:35:04.681Z,6.93
2018-10-19T03:36:15.142Z,6.78
2018-10-19T03:37:25.261Z,6.79
2018-10-19T03:38:35.380Z,6.82
2018-10-19T03:39:45.501Z,6.84
2018-10-19T03:40:55.700Z,6.77
2018-10-19T03:42:06.010Z,6.74
2018-10-19T03:43:16.126Z,6.75
2018-10-19T03:44:26.247Z,6.78
2018-10-19T03:45:36.577Z,6.67
2018-10-19T03:46:46.686Z,6.75
2018-10-19T03:47:56.808Z,6.77
2018-10-19T03:49:07.138Z,6.79
2018-10-19T03:50:17.511Z,6.62
2018-10-19T03:51:27.653Z,6.67
2018-10-19T03:52:37.771Z,6.63
2018-10-19T03:53:47.886Z,6.56
2018-10-19T03:54:58.065Z,6.59
2018-10-19T03:56:08.194Z,6.57
2018-10-19T03:57:18.654Z,6.64
2018-10-19T03:58:28.836Z,6.63
2018-10-19T03:59:38.965Z,6.53
2018-10-19T04:00:48.823Z,6.49
2018-10-19T04:01:58.934Z,6.52
2018-10-19T04:03:09.204Z,6.52
2018-10-19T04:04:19.652Z,6.54
2018-10-19T04:05:29.790Z,6.48
2018-10-19T04:06:39.926Z,6.57
2018-10-19T04:07:49.797Z,6.46
2018-10-19T04:09:00.023Z,6.53
2018-10-19T04:10:10.321Z,6.54
2018-10-19T04:11:20.596Z,6.56
2018-10-19T04:12:30.706Z,6.54
2018-10-19T04:13:40.827Z,6.44
2018-10-19T04:14:50.964Z,6.48
2018-10-19T04:16:01.165Z,6.56
2018-10-19T04:17:11.676Z,6.49
2018-10-19T04:18:21.640Z,6.45
2018-10-19T04:19:31.777Z,6.39
2018-10-19T04:20:41.912Z,6.42
2018-10-19T04:21:52.037Z,6.45
2018-10-19T04:23:02.302Z,6.46
2018-10-19T04:24:12.727Z,6.41
2018-10-19T04:25:22.901Z,6.38
2018-10-19T04:26:33.017Z,6.41
2018-10-19T04:27:43.419Z,6.31
2018-10-19T04:28:53.852Z,6.42
2018-10-19T04:30:04.058Z,6.34
2018-10-19T04:31:14.173Z,6.3
2018-10-19T04:32:24.275Z,6.34
2018-10-19T04:33:34.398Z,6.36
2018-10-19T04:34:44.566Z,6.35
2018-10-19T04:35:54.429Z,6.31
2018-10-19T04:37:04.573Z,6.38
2018-10-19T04:38:14.689Z,6.28
2018-10-19T04:39:24.459Z,6.28
2018-10-19T04:40:34.611Z,6.27
2018-10-19T04:41:44.925Z,6.24
2018-10-19T04:42:55.661Z,6.21
2018-10-19T04:44:05.783Z,6.19
2018-10-19T04:45:16.236Z,6.19
2018-10-19T04:46:26.701Z,6.16
2018-10-19T04:47:36.941Z,6.16
2018-10-19T04:48:47.429Z,6.05
2018-10-19T04:49:57.548Z,6.12
2018-10-19T04:51:07.545Z,6.11
2018-10-19T04:52:18.041Z,6.05
2018-10-19T04:53:28.201Z,6.05
2018-10-19T04:54:38.383Z,6.05
2018-10-19T04:55:48.540Z,6.08
2018-10-19T04:56:58.719Z,6.11
2018-10-19T04:58:08.692Z,6.03
2018-10-19T04:59:18.963Z,6.09
2018-10-19T05:00:29.091Z,6.09
2018-10-19T05:01:39.227Z,6.06
2018-10-19T05:02:49.712Z,6.06
2018-10-19T05:04:00.028Z,6.06
2018-10-19T05:05:10.594Z,6.08
2018-10-19T05:06:21.414Z,6.03
2018-10-19T05:07:31.808Z,5.93
2018-10-19T05:08:41.941Z,5.99
2018-10-19T05:09:52.058Z,5.93
2018-10-19T05:11:02.245Z,6.06
2018-10-19T05:12:12.710Z,6.06
2018-10-19T05:13:22.904Z,6.05
2018-10-19T05:14:32.764Z,6.08
2018-10-19T05:15:43.488Z,6.01
2018-10-19T05:16:53.639Z,6.01
2018-10-19T05:18:03.633Z,6.05
2018-10-19T05:19:13.745Z,6.01
2018-10-19T05:20:24.217Z,6.03
2018-10-19T05:21:34.342Z,6.05
2018-10-19T05:22:44.237Z,5.99
2018-10-19T05:23:54.373Z,6.01
2018-10-19T05:25:04.500Z,5.94
2018-10-19T05:26:14.913Z,5.98
2018-10-19T05:27:25.207Z,6.06
2018-10-19T05:28:35.343Z,6.01
2018-10-19T05:29:45.455Z,5.96
2018-10-19T05:30:55.573Z,5.94
2018-10-19T05:32:05.886Z,5.94
2018-10-19T05:33:16.328Z,6.01
2018-10-19T05:34:26.472Z,6.12
2018-10-19T05:35:36.647Z,6.08
2018-10-19T05:36:46.808Z,6.05
2018-10-19T05:37:57.078Z,6.05
2018-10-19T05:39:07.436Z,6.08
2018-10-19T05:40:17.573Z,6.16
2018-10-19T05:41:27.696Z,6.16
2018-10-19T05:42:37.838Z,6.14
2018-10-19T05:43:48.121Z,6.19
2018-10-19T05:44:58.314Z,6.17
2018-10-19T05:46:08.437Z,6.17
2018-10-19T05:47:18.824Z,6.17
2018-10-19T05:48:28.929Z,6.19
2018-10-19T05:49:39.088Z,6.21
2018-10-19T05:50:49.201Z,6.19
2018-10-19T05:51:59.454Z,6.26
2018-10-19T05:53:09.987Z,6.3
2018-10-19T05:54:20.736Z,6.31
2018-10-19T05:55:30.849Z,6.36
2018-10-19T05:56:40.962Z,6.3
2018-10-19T05:57:51.074Z,6.34
2018-10-19T05:59:01.245Z,6.3
2018-10-19T06:00:11.597Z,6.3
2018-10-19T06:01:21.710Z,6.27
2018-10-19T06:02:32.206Z,6.2
2018-10-19T06:03:42.707Z,6.16
2018-10-19T06:04:52.527Z,6.16
2018-10-19T06:06:02.721Z,6.16
2018-10-19T06:07:12.854Z,6.17
2018-10-19T06:08:22.705Z,6.17
2018-10-19T06:09:32.577Z,6.17
2018-10-19T06:10:42.931Z,6.17
2018-10-19T06:11:53.056Z,6.16
2018-10-19T06:13:03.178Z,6.26
2018-10-19T06:14:13.613Z,6.26
2018-10-19T06:15:23.517Z,6.3
2018-10-19T06:16:33.630Z,6.41
2018-10-19T06:17:43.794Z,6.41
2018-10-19T06:18:53.909Z,6.41
2018-10-19T06:20:04.226Z,6.35
2018-10-19T06:21:14.723Z,6.41
2018-10-19T06:22:25.142Z,6.44
2018-10-19T06:23:35.251Z,6.6
2018-10-19T06:24:45.369Z,6.56
2018-10-19T06:25:55.428Z,6.63
2018-10-19T06:27:05.923Z,6.62
2018-10-19T06:28:16.045Z,6.52
2018-10-19T06:29:26.189Z,6.52
2018-10-19T06:30:36.325Z,6.56
2018-10-19T06:31:46.457Z,6.56
2018-10-19T06:32:55.953Z,6.59
2018-10-19T06:34:05.811Z,6.63
2018-10-19T06:35:16.244Z,6.59
2018-10-19T06:36:26.013Z,6.59
2018-10-19T06:37:36.132Z,6.6
2018-10-19T06:38:46.241Z,6.66
2018-10-19T06:39:56.362Z,6.66
2018-10-19T06:41:06.632Z,6.63
2018-10-19T06:42:16.947Z,6.67
2018-10-19T06:43:27.081Z,6.78
2018-10-19T06:44:37.198Z,6.75
2018-10-19T06:45:47.302Z,6.69
2018-10-19T06:46:57.480Z,6.84
2018-10-19T06:48:07.887Z,6.75
2018-10-19T06:49:18.081Z,6.85
2018-10-19T06:50:27.842Z,6.81
2018-10-19T06:51:37.986Z,6.9
2018-10-19T06:52:48.104Z,7.05
2018-10-19T06:53:58.229Z,7.13
2018-10-19T06:55:08.357Z,7.33
2018-10-19T06:56:18.763Z,7.56
2018-10-19T06:57:28.883Z,7.85
2018-10-19T06:58:39.013Z,8.66
2018-10-19T06:59:49.303Z,9.59
2018-10-19T07:00:59.177Z,10.61
2018-10-19T07:02:09.478Z,11.42
2018-10-19T07:03:20.058Z,12.17
2018-10-19T07:04:30.163Z,13
2018-10-19T07:05:40.078Z,13.66
2018-10-19T07:06:50.624Z,14.29
2018-10-19T07:08:01.085Z,15
2018-10-19T07:09:11.778Z,15.21
2018-10-19T07:10:21.916Z,15.4
2018-10-19T07:11:32.026Z,15.42
2018-10-19T07:12:42.154Z,15.18
2018-10-19T07:13:51.944Z,14.99
2018-10-19T07:15:02.160Z,14.52
2018-10-19T07:16:12.381Z,13.99
2018-10-19T07:17:22.501Z,13.55
2018-10-19T07:18:32.357Z,13.41
2018-10-19T07:19:42.486Z,13.19
2018-10-19T07:20:52.671Z,12.81
2018-10-19T07:22:02.798Z,12.68
2018-10-19T07:23:13.444Z,12.47
2018-10-19T07:24:23.861Z,12.26
2018-10-19T07:25:33.988Z,12.23
2018-10-19T07:26:44.115Z,12.07
2018-10-19T07:27:54.226Z,11.8
2018-10-19T07:29:04.209Z,11.57
2018-10-19T07:30:14.247Z,11.43
2018-10-19T07:31:24.380Z,11.46
2018-10-19T07:32:34.520Z,11.38
2018-10-19T07:33:44.637Z,11.15
2018-10-19T07:34:54.808Z,11.12
2018-10-19T07:36:05.144Z,10.98
2018-10-19T07:37:15.000Z,10.84
2018-10-19T07:38:25.356Z,10.92
2018-10-19T07:39:35.464Z,10.92
2018-10-19T07:40:45.594Z,11.06
2018-10-19T07:41:55.834Z,11.17
2018-10-19T07:43:06.167Z,11.2
2018-10-19T07:44:16.694Z,11.28
2018-10-19T07:45:27.001Z,11.38
2018-10-19T07:46:37.114Z,11.38
2018-10-19T07:47:47.241Z,11.39
2018-10-19T07:48:58.075Z,11.33
2018-10-19T07:50:08.466Z,11.3
2018-10-19T07:51:19.021Z,11.42
2018-10-19T07:52:29.366Z,11.4
2018-10-19T07:53:39.245Z,11.49
2018-10-19T07:54:49.388Z,11.58
2018-10-19T07:55:59.850Z,11.59
2018-10-19T07:57:10.215Z,11.65
2018-10-19T07:58:20.759Z,11.64
2018-10-19T07:59:31.364Z,11.77
2018-10-19T08:00:41.699Z,12.02
2018-10-19T08:01:51.948Z,12.05
2018-10-19T08:03:02.129Z,12.13
2018-10-19T08:04:12.264Z,12.02
2018-10-19T08:05:22.539Z,12.05
2018-10-19T08:06:32.409Z,12.15
2018-10-19T08:07:42.520Z,12.26
2018-10-19T08:08:52.638Z,12.39
2018-10-19T08:10:02.765Z,12.35
2018-10-19T08:11:13.290Z,12.39
2018-10-19T08:12:23.815Z,12.38
2018-10-19T08:13:33.938Z,12.44
2018-10-19T08:14:44.098Z,12.45
2018-10-19T08:15:54.237Z,12.38
2018-10-19T08:17:04.531Z,12.38
2018-10-19T08:18:14.945Z,12.37
2018-10-19T08:19:25.098Z,12.26
2018-10-19T08:20:35.211Z,12.35
2018-10-19T08:21:45.335Z,12.35
2018-10-19T08:22:55.569Z,12.24
2018-10-19T08:24:05.855Z,12.13
2018-10-19T08:25:15.984Z,12.26
2018-10-19T08:26:26.108Z,12.38
2018-10-19T08:27:36.444Z,12.39
2018-10-19T08:28:46.633Z,12.53
2018-10-19T08:29:56.787Z,12.85
2018-10-19T08:31:06.917Z,12.96
2018-10-19T08:32:17.227Z,13
2018-10-19T08:33:27.375Z,13.04
2018-10-19T08:34:37.508Z,13.19
2018-10-19T08:35:47.635Z,13.31
2018-10-19T08:36:57.775Z,13.59
2018-10-19T08:38:07.936Z,13.96
2018-10-19T08:39:18.297Z,14.4
2018-10-19T08:40:28.169Z,14.77
2018-10-19T08:41:38.141Z,15.11
2018-10-19T08:42:48.767Z,15.55
2018-10-19T08:43:59.026Z,16.02
2018-10-19T08:45:09.407Z,16.49
2018-10-19T08:46:19.844Z,17.06
2018-10-19T08:47:30.091Z,17.83
2018-10-19T08:48:40.323Z,18.46
2018-10-19T08:49:50.462Z,19.19
2018-10-19T08:51:00.736Z,19.85
2018-10-19T08:52:10.780Z,20.21
2018-10-19T08:53:21.154Z,20.53
2018-10-19T08:54:31.572Z,21.01
2018-10-19T08:55:41.310Z,21.18
2018-10-19T08:56:51.449Z,21.4
2018-10-19T08:58:02.205Z,21.61
2018-10-19T08:59:13.014Z,21.79
2018-10-19T09:00:23.920Z,21.72
2018-10-19T09:01:34.420Z,21.96
2018-10-19T09:02:44.562Z,22.12
2018-10-19T09:03:54.849Z,22.43
2018-10-19T09:05:05.285Z,22.58
2018-10-19T09:06:15.942Z,22.67
2018-10-19T09:07:26.092Z,22.87
2018-10-19T09:08:36.226Z,23.01
2018-10-19T09:09:46.435Z,23.03
2018-10-19T09:10:57.034Z,23.11
2018-10-19T09:12:07.617Z,23.14
2018-10-19T09:13:17.789Z,23.38
2018-10-19T09:14:27.584Z,23.45
2018-10-19T09:15:37.754Z,23.51
2018-10-19T09:16:47.911Z,23.72
2018-10-19T09:17:58.122Z,23.79
2018-10-19T09:19:08.328Z,23.91
2018-10-19T09:20:18.482Z,24.05
2018-10-19T09:21:28.635Z,23.98
2018-10-19T09:22:38.516Z,23.79
2018-10-19T09:23:48.672Z,23.79
2018-10-19T09:24:58.822Z,23.77
2018-10-19T09:26:08.965Z,23.68
2018-10-19T09:28:33.767Z,23.42
2018-10-19T09:29:44.165Z,23.39
2018-10-19T09:30:54.315Z,23.16
2018-10-19T09:32:04.462Z,23.09
2018-10-19T09:33:14.769Z,22.95
2018-10-19T09:34:25.227Z,22.93
2018-10-19T09:35:35.636Z,22.71
2018-10-19T09:39:18.617Z,22.33
2018-10-19T09:41:40.534Z,22.28
2018-10-19T09:42:50.862Z,22.39
2018-10-19T09:44:06.282Z,22.45
2018-10-19T09:45:17.896Z,22.52
2018-10-19T09:46:28.286Z,22.86
2018-10-19T09:47:38.664Z,23.2
2018-10-19T09:48:48.989Z,23.33
2018-10-19T09:49:59.173Z,23.5
2018-10-19T09:51:12.334Z,23.48
2018-10-19T09:52:23.607Z,23.42
2018-10-19T09:53:33.646Z,23.36
2018-10-19T09:54:46.828Z,23.35
2018-10-19T09:55:58.161Z,23.35
2018-10-19T09:57:08.811Z,23.24
2018-10-19T09:58:19.259Z,23.05
2018-10-19T09:59:29.424Z,23.11
2018-10-19T10:00:39.583Z,23.33
2018-10-19T10:01:49.823Z,23.48
2018-10-19T10:04:14.184Z,23.54
2018-10-19T10:05:24.320Z,23.72
2018-10-19T10:06:34.466Z,23.72
2018-10-19T10:07:44.694Z,23.6
2018-10-19T10:08:54.711Z,23.69
2018-10-19T10:10:04.628Z,23.68
2018-10-19T10:11:15.047Z,23.68
2018-10-19T10:12:25.178Z,23.58
2018-10-19T10:13:35.344Z,23.57
2018-10-19T10:14:45.342Z,23.35
2018-10-19T10:15:56.163Z,23.33
2018-10-19T10:17:06.512Z,23.13
2018-10-19T10:19:32.376Z,23.35
2018-10-19T10:20:42.282Z,23.55
2018-10-19T10:21:52.474Z,23.73
2018-10-19T10:23:02.823Z,23.7
2018-10-19T10:24:12.989Z,23.73
2018-10-19T10:25:23.457Z,23.77
2018-10-19T10:26:33.695Z,23.77
2018-10-19T10:27:43.834Z,23.75
2018-10-19T10:28:53.975Z,23.68
2018-10-19T10:30:04.131Z,23.6
2018-10-19T10:31:14.367Z,23.35
2018-10-19T10:32:24.800Z,23.18
2018-10-19T10:33:35.175Z,22.99
2018-10-19T10:34:45.527Z,23.03
2018-10-19T10:35:55.690Z,23.08
2018-10-19T10:37:06.054Z,23.17
2018-10-19T10:38:16.493Z,23.45
2018-10-19T10:39:26.813Z,23.65
2018-10-19T10:40:36.979Z,23.79
2018-10-19T10:41:46.880Z,23.98
2018-10-19T10:42:57.046Z,24.07
2018-10-19T10:44:07.334Z,23.91
2018-10-19T10:45:17.487Z,23.72
2018-10-19T10:46:27.629Z,23.57
2018-10-19T10:47:37.763Z,23.54
2018-10-19T10:48:47.959Z,23.48
2018-10-19T10:49:58.190Z,23.46
2018-10-19T10:51:08.544Z,23.57
2018-10-19T10:52:19.014Z,23.69
2018-10-19T10:53:29.173Z,23.75
2018-10-19T10:54:39.328Z,23.94
2018-10-19T10:55:49.229Z,24.16
2018-10-19T10:56:59.373Z,24.27
2018-10-19T10:58:09.814Z,24.17
2018-10-19T10:59:20.360Z,24.05
2018-10-19T11:00:30.506Z,23.97
2018-10-19T11:01:40.891Z,24.07
2018-10-19T11:02:51.059Z,24.13
2018-10-19T11:04:01.294Z,24.4
2018-10-19T11:05:11.322Z,24.65
2018-10-19T11:06:21.482Z,24.84
2018-10-19T11:07:32.528Z,24.85
2018-10-19T11:08:43.630Z,24.85
2018-10-19T11:09:53.815Z,24.78
2018-10-19T11:11:04.681Z,24.76
2018-10-19T11:12:14.834Z,24.73
2018-10-19T11:13:24.989Z,24.78
2018-10-19T11:14:35.139Z,24.85
2018-10-19T11:15:45.290Z,24.95
2018-10-19T11:16:55.482Z,24.99
2018-10-19T11:18:05.629Z,24.91
2018-10-19T11:19:16.084Z,24.94
2018-10-19T11:20:26.354Z,24.76
2018-10-19T11:21:36.524Z,24.44
2018-10-19T11:22:46.682Z,24.16
2018-10-19T11:23:56.942Z,23.91
2018-10-19T11:25:07.373Z,23.73
2018-10-19T11:26:17.480Z,23.7
2018-10-19T11:27:27.630Z,23.69
2018-10-19T11:28:37.910Z,23.73
2018-10-19T11:29:48.273Z,23.88
2018-10-19T11:30:58.613Z,24.02
2018-10-19T11:32:08.919Z,24.05
2018-10-19T11:33:19.077Z,24.16
2018-10-19T11:34:29.259Z,24.17
2018-10-19T11:35:39.413Z,24.19
2018-10-19T11:36:49.587Z,24.1
2018-10-19T11:37:59.687Z,24.13
2018-10-19T11:39:09.822Z,24.28
2018-10-19T11:40:20.222Z,24.15
2018-10-19T11:41:30.422Z,24.2
2018-10-19T11:42:40.583Z,23.97
2018-10-19T11:43:50.490Z,23.76
2018-10-19T11:45:01.899Z,23.82
2018-10-19T11:46:12.536Z,23.75
2018-10-19T11:47:23.171Z,23.68
2018-10-19T11:48:33.382Z,23.58
2018-10-19T11:49:43.644Z,23.57
2018-10-19T11:50:53.807Z,23.58
2018-10-19T11:52:04.189Z,23.73
2018-10-19T11:53:14.586Z,23.82
2018-10-19T11:54:24.753Z,23.88
2018-10-19T11:55:34.947Z,23.92
2018-10-19T11:56:45.089Z,23.87
2018-10-19T11:57:55.286Z,23.77
2018-10-19T11:59:05.338Z,23.88
2018-10-19T12:00:15.494Z,23.88
2018-10-19T12:01:25.706Z,23.98
2018-10-19T12:02:35.617Z,23.98
2018-10-19T12:03:46.205Z,24
2018-10-19T12:04:56.467Z,24.12
2018-10-19T12:06:06.630Z,24.1
2018-10-19T12:07:17.109Z,24.07
2018-10-19T12:08:27.293Z,23.95
2018-10-19T12:09:37.463Z,23.87
2018-10-19T12:10:48.277Z,23.79
2018-10-19T12:11:58.945Z,23.88
2018-10-19T12:13:09.343Z,23.94
2018-10-19T12:14:19.909Z,23.77
2018-10-19T12:15:30.059Z,23.8
2018-10-19T12:16:40.038Z,23.57
2018-10-19T12:17:50.683Z,23.5
2018-10-19T12:19:00.984Z,23.36
2018-10-19T12:20:11.364Z,23.33
2018-10-19T12:21:22.429Z,23.42
2018-10-19T12:22:32.867Z,23.38
2018-10-19T12:23:43.064Z,23.32
2018-10-19T12:24:53.277Z,23.24
2018-10-19T12:26:03.969Z,23.23
2018-10-19T12:27:14.749Z,23.11
2018-10-19T12:28:25.004Z,23.2
2018-10-19T12:29:35.172Z,23.11
2018-10-19T12:30:45.340Z,23.11
2018-10-19T12:31:55.480Z,23.16
2018-10-19T12:33:05.824Z,23.17
2018-10-19T12:34:16.439Z,23.2
2018-10-19T12:35:26.688Z,23.17
2018-10-19T12:36:36.966Z,23.02
2018-10-19T12:37:47.099Z,23.01
2018-10-19T12:38:57.060Z,22.98
2018-10-19T12:40:07.407Z,22.89
2018-10-19T12:41:17.870Z,22.99
2018-10-19T12:42:28.039Z,22.93
2018-10-19T12:43:38.214Z,22.89
2018-10-19T12:44:48.393Z,22.8
2018-10-19T12:45:58.588Z,22.53
2018-10-19T12:47:08.777Z,22.33
2018-10-19T12:48:19.078Z,22.18
2018-10-19T12:49:29.525Z,22.08
2018-10-19T12:50:39.669Z,21.97
2018-10-19T12:51:49.830Z,21.73
2018-10-19T12:53:00.009Z,21.68
2018-10-19T12:54:10.328Z,21.53
2018-10-19T12:55:21.093Z,21.41
2018-10-19T12:56:31.496Z,21.18
2018-10-19T12:57:42.142Z,21.12
2018-10-19T12:58:53.073Z,20.96
2018-10-19T13:00:03.466Z,20.82
2018-10-19T13:01:13.845Z,20.9
2018-10-19T13:02:24.259Z,20.76
2018-10-19T13:03:34.790Z,20.66
2018-10-19T13:04:45.306Z,20.56
2018-10-19T13:05:55.671Z,20.39
2018-10-19T13:07:05.976Z,20.3
2018-10-19T13:08:16.414Z,20.2
2018-10-19T13:10:42.148Z,20.04
2018-10-19T13:11:52.541Z,19.92
2018-10-19T13:13:02.783Z,19.73
2018-10-19T13:14:13.147Z,19.58
2018-10-19T13:15:23.316Z,19.53
2018-10-19T13:16:33.459Z,19.42
2018-10-19T13:17:43.837Z,19.28
2018-10-19T13:18:54.111Z,19.21
2018-10-19T13:20:04.369Z,19.15
2018-10-19T13:21:14.906Z,19.03
2018-10-19T13:22:25.157Z,19.05
2018-10-19T13:23:35.326Z,19.05
2018-10-19T13:24:45.519Z,18.97
2018-10-19T13:25:55.440Z,18.91
2018-10-19T13:27:06.031Z,18.76
2018-10-19T13:28:16.479Z,18.46
2018-10-19T13:29:26.646Z,18.31
2018-10-19T13:30:36.656Z,18.23
2018-10-19T13:31:46.563Z,18.15
2018-10-19T13:32:56.788Z,18
2018-10-19T13:34:07.215Z,17.83
2018-10-19T13:35:17.501Z,17.7
2018-10-19T13:36:27.654Z,17.58
2018-10-19T13:37:37.838Z,17.46
2018-10-19T13:38:48.147Z,17.42
2018-10-19T13:39:58.402Z,17.24
2018-10-19T13:41:08.565Z,17.16
2018-10-19T13:42:18.503Z,17.09
2018-10-19T13:43:28.676Z,17.11
2018-10-19T13:44:38.897Z,16.98
2018-10-19T13:45:49.534Z,16.8
2018-10-19T13:47:00.092Z,16.74
2018-10-19T13:48:10.474Z,16.69
2018-10-19T13:49:20.840Z,16.59
2018-10-19T13:50:35.253Z,16.5
2018-10-19T13:53:01.123Z,16.5
2018-10-19T13:54:12.680Z,16.46
2018-10-19T13:55:22.601Z,16.47
2018-10-19T13:56:32.785Z,16.47
2018-10-19T13:57:42.957Z,16.47
2018-10-19T13:58:53.176Z,16.42
2018-10-19T14:00:03.440Z,16.38
2018-10-19T14:01:13.644Z,16.42
2018-10-19T14:02:23.833Z,16.49
2018-10-19T14:03:34.031Z,16.47
2018-10-19T14:04:44.073Z,16.53
2018-10-19T14:05:54.401Z,16.54
2018-10-19T14:07:04.792Z,16.42
2018-10-19T14:08:15.028Z,16.32
2018-10-19T14:09:25.458Z,16.32
2018-10-19T14:10:35.676Z,16.25
2018-10-19T14:11:45.914Z,16.17
2018-10-19T14:12:56.290Z,16.07
2018-10-19T14:14:06.644Z,16.09
2018-10-19T14:15:17.238Z,16.04
2018-10-19T14:16:27.474Z,16.11
2018-10-19T14:17:37.621Z,16.13
2018-10-19T14:18:47.783Z,16.06
2018-10-19T14:19:57.961Z,15.98
2018-10-19T14:21:07.997Z,15.96
2018-10-19T14:22:18.560Z,15.98
2018-10-19T14:23:28.840Z,15.91
2018-10-19T14:24:39.015Z,15.82
2018-10-19T14:25:49.374Z,15.82
2018-10-19T14:26:59.649Z,15.78
2018-10-19T14:28:10.070Z,15.8
2018-10-19T14:29:20.365Z,15.75
2018-10-19T14:30:30.556Z,15.76
2018-10-19T14:31:40.721Z,15.73
2018-10-19T14:32:50.924Z,15.58
2018-10-19T14:34:01.292Z,15.66
2018-10-19T14:35:11.460Z,15.54
2018-10-19T14:36:21.459Z,15.53
2018-10-19T14:37:31.651Z,15.48
2018-10-19T14:38:41.575Z,15.39
2018-10-19T14:39:51.487Z,15.39
2018-10-19T14:41:01.848Z,15.27
2018-10-19T14:42:12.201Z,15.24
2018-10-19T14:43:22.624Z,15.24
2018-10-19T14:44:32.773Z,15.17
2018-10-19T14:45:42.937Z,15.05
2018-10-19T14:46:53.135Z,15.09
2018-10-19T14:48:03.358Z,15.18
2018-10-19T14:49:13.545Z,15.14
2018-10-19T14:50:23.711Z,15.21
2018-10-19T14:51:33.920Z,15.24
2018-10-19T14:52:44.081Z,15.18
2018-10-19T14:53:54.270Z,15.13
2018-10-19T14:55:04.442Z,15.13
2018-10-19T14:56:14.358Z,15.05
2018-10-19T14:57:24.547Z,15.03
2018-10-19T14:58:34.735Z,15.06
2018-10-19T14:59:44.932Z,15.17
2018-10-19T15:00:55.091Z,15.06
2018-10-19T15:02:05.019Z,15.02
2018-10-19T15:03:15.579Z,15.03
2018-10-19T15:04:26.278Z,14.99
2018-10-19T15:05:36.085Z,14.96
2018-10-19T15:06:46.288Z,14.85
2018-10-19T15:07:56.438Z,14.84
2018-10-19T15:09:06.874Z,14.75
2018-10-19T15:10:17.471Z,14.74
2018-10-19T15:11:30.101Z,14.8
2018-10-19T15:12:41.323Z,14.69
2018-10-19T15:13:51.496Z,14.69
2018-10-19T15:15:01.815Z,14.7
2018-10-19T15:16:12.345Z,14.5
2018-10-19T15:17:22.531Z,14.51
2018-10-19T15:18:33.111Z,14.32
2018-10-19T15:19:43.279Z,14.43
2018-10-19T15:20:53.482Z,14.39
2018-10-19T15:22:03.703Z,14.34
2018-10-19T15:23:13.894Z,14.36
2018-10-19T15:24:24.057Z,14.39
2018-10-19T15:25:34.251Z,14.28
2018-10-19T15:26:44.432Z,14.28
2018-10-19T15:27:54.613Z,14.29
2018-10-19T15:29:05.090Z,14.22
2018-10-19T15:30:15.622Z,14.1
2018-10-19T15:31:26.230Z,14.14
2018-10-19T15:32:36.393Z,14.06